createdAt,value
2023-05-02T00:01:54.376Z,101099.84
2023-05-02T00:04:24.976Z,101091.16
2023-05-02T00:06:55.559Z,101085.06
2023-05-02T00:09:26.063Z,101090.25
2023-05-02T00:11:56.262Z,101100.81
2023-05-02T00:14:26.489Z,101066.16
2023-05-02T00:16:56.738Z,101092.13
2023-05-02T00:19:29.577Z,101092.97
2023-05-02T00:21:59.755Z,101074.78
2023-05-02T00:24:29.871Z,101041.88
2023-05-02T00:27:17.484Z,101062.59
2023-05-02T00:29:48.158Z,101064.31
2023-05-02T00:32:19.223Z,101066.94
2023-05-02T00:34:49.456Z,101060.84
2023-05-02T00:37:19.947Z,101056.53
2023-05-02T00:39:50.036Z,101048.69
2023-05-02T00:42:20.304Z,101015.78
2023-05-02T00:44:54.037Z,101052.22
2023-05-02T00:47:24.588Z,101038.34
2023-05-02T00:49:54.840Z,101034.81
2023-05-02T00:52:25.654Z,101039.09
2023-05-02T00:54:56.330Z,101036.47
2023-05-02T00:57:26.525Z,101017.44
2023-05-02T00:59:57.883Z,101020.91
2023-05-02T01:02:39.258Z,101024.34
2023-05-02T01:05:44.850Z,101026.00
2023-05-02T01:08:24.743Z,101019.97
2023-05-02T01:11:28.550Z,101022.59
2023-05-02T01:14:02.393Z,101012.19
2023-05-02T01:16:53.010Z,101022.53
2023-05-02T01:19:29.632Z,101024.31
2023-05-02T01:22:02.363Z,101020.03
2023-05-02T01:24:48.674Z,101021.75
2023-05-02T01:30:34.346Z,101010.50
2023-05-02T01:33:23.075Z,101012.25
2023-05-02T01:35:53.962Z,101008.84
2023-05-02T01:38:25.610Z,101014.88
2023-05-02T01:40:58.664Z,101013.13
2023-05-02T01:43:35.373Z,101018.38
2023-05-02T01:46:09.688Z,101011.44
2023-05-02T01:48:51.706Z,101011.41
2023-05-02T01:51:24.052Z,101004.50
2023-05-02T01:53:54.835Z,100975.97
2023-05-02T01:56:26.135Z,100997.59
2023-05-02T01:58:57.177Z,100993.28
2023-05-02T02:01:31.283Z,101016.69
2023-05-02T02:04:02.172Z,101015.91
2023-05-02T02:06:33.234Z,101002.84
2023-05-02T02:09:04.089Z,101008.06
2023-05-02T02:11:48.373Z,100988.19
2023-05-02T02:14:26.230Z,100991.59
2023-05-02T02:17:01.627Z,100996.81
2023-05-02T02:19:33.365Z,100957.88
2023-05-02T02:22:08.080Z,100995.97
2023-05-02T02:24:48.677Z,100993.41
2023-05-02T02:27:19.515Z,100995.19
2023-05-02T02:29:50.108Z,100979.66
2023-05-02T02:32:21.067Z,100974.50
2023-05-02T02:34:51.687Z,100986.66
2023-05-02T02:37:33.109Z,100998.78
2023-05-02T02:40:40.217Z,100997.94
2023-05-02T02:43:44.534Z,100997.97
2023-05-02T02:46:17.779Z,101003.25
2023-05-02T02:49:21.621Z,101004.09
2023-05-02T02:52:18.749Z,101003.28
2023-05-02T02:54:59.572Z,100997.22
2023-05-02T02:58:01.569Z,100988.47
2023-05-02T03:00:33.703Z,100981.66
2023-05-02T03:03:07.369Z,100981.59
2023-05-02T03:05:38.687Z,100986.81
2023-05-02T03:08:09.021Z,100979.03
2023-05-02T03:10:55.944Z,100991.13
2023-05-02T03:13:26.110Z,100979.03
2023-05-02T03:16:12.610Z,100988.53
2023-05-02T03:21:26.734Z,100989.44
2023-05-02T03:23:57.708Z,100979.00
2023-05-02T03:26:28.653Z,100973.75
2023-05-02T03:28:58.880Z,100978.06
2023-05-02T03:31:29.064Z,100953.78
2023-05-02T03:33:59.577Z,100979.78
2023-05-02T03:36:29.918Z,100973.69
2023-05-02T03:39:00.062Z,100961.53
2023-05-02T03:41:30.595Z,100969.25
2023-05-02T03:44:00.837Z,100956.22
2023-05-02T03:46:33.804Z,100950.13
2023-05-02T03:49:04.048Z,100964.09
2023-05-02T03:51:34.574Z,100978.78
2023-05-02T03:54:05.050Z,100973.59
2023-05-02T03:56:35.336Z,100998.69
2023-05-02T03:59:05.969Z,100975.25
2023-05-02T04:01:36.291Z,100994.34
2023-05-02T04:04:06.648Z,100989.03
2023-05-02T04:06:36.890Z,100991.59
2023-05-02T04:09:07.826Z,100959.50
2023-05-02T04:11:38.091Z,100982.84
2023-05-02T04:14:08.638Z,100959.38
2023-05-02T04:16:39.152Z,100982.78
2023-05-02T04:19:12.293Z,100980.16
2023-05-02T04:21:42.974Z,100955.00
2023-05-02T04:24:14.353Z,100982.72
2023-05-02T04:26:44.968Z,100974.94
2023-05-02T04:29:15.108Z,100987.84
2023-05-02T04:32:02.142Z,100991.34
2023-05-02T04:34:32.383Z,100988.78
2023-05-02T04:37:02.606Z,100990.56
2023-05-02T04:39:34.585Z,101004.41
2023-05-02T04:42:04.849Z,100992.28
2023-05-02T04:44:35.266Z,100993.97
2023-05-02T04:47:05.451Z,100999.97
2023-05-02T04:49:35.628Z,101002.53
2023-05-02T04:52:07.051Z,101010.38
2023-05-02T04:54:37.361Z,100988.78
2023-05-02T04:57:08.237Z,100998.34
2023-05-02T04:59:38.800Z,101013.78
2023-05-02T05:02:12.720Z,100996.50
2023-05-02T05:04:43.250Z,100977.44
2023-05-02T05:07:13.367Z,101004.16
2023-05-02T05:09:43.569Z,101005.94
2023-05-02T05:12:14.093Z,101011.03
2023-05-02T05:14:44.828Z,100983.50
2023-05-02T05:17:15.004Z,100989.50
2023-05-02T05:19:45.076Z,100992.13
2023-05-02T05:22:15.735Z,101015.41
2023-05-02T05:25:00.845Z,101025.75
2023-05-02T05:27:32.498Z,101012.66
2023-05-02T05:30:03.707Z,101023.19
2023-05-02T05:32:34.318Z,101018.00
2023-05-02T05:35:04.965Z,101018.03
2023-05-02T05:37:37.648Z,101003.31
2023-05-02T05:40:08.953Z,101018.81
2023-05-02T05:42:39.170Z,101031.88
2023-05-02T05:46:01.709Z,101026.59
2023-05-02T05:48:32.134Z,101011.88
2023-05-02T05:51:06.361Z,101028.28
2023-05-02T05:53:36.679Z,101009.97
2023-05-02T05:56:13.764Z,101034.28
2023-05-02T05:58:45.433Z,101030.69
2023-05-02T06:01:15.704Z,101034.97
2023-05-02T06:03:46.448Z,101024.50
2023-05-02T06:06:16.895Z,101027.91
2023-05-02T06:08:47.094Z,101030.38
2023-05-02T06:11:17.246Z,101019.09
2023-05-02T06:13:47.925Z,101020.88
2023-05-02T06:16:21.194Z,101027.75
2023-05-02T06:19:06.879Z,101040.63
2023-05-02T06:21:38.682Z,101032.75
2023-05-02T06:24:11.390Z,101025.72
2023-05-02T06:26:41.614Z,101026.69
2023-05-02T06:29:11.781Z,101030.13
2023-05-02T06:31:42.028Z,101030.06
2023-05-02T06:34:12.248Z,101039.53
2023-05-02T06:36:42.393Z,101017.81
2023-05-02T06:39:15.041Z,101048.09
2023-05-02T06:41:49.063Z,101055.84
2023-05-02T06:44:19.401Z,101049.81
2023-05-02T06:46:50.400Z,101037.69
2023-05-02T06:49:20.571Z,101042.97
2023-05-02T06:51:50.767Z,101062.75
2023-05-02T06:54:22.117Z,101049.78
2023-05-02T06:56:52.294Z,101049.81
2023-05-02T06:59:22.738Z,101065.34
2023-05-02T07:02:09.759Z,101061.91
2023-05-02T07:04:40.025Z,101046.22
2023-05-02T07:07:10.244Z,101072.25
2023-05-02T07:09:40.421Z,101069.63
2023-05-02T07:12:12.974Z,101086.09
2023-05-02T07:14:43.419Z,101092.22
2023-05-02T07:17:13.643Z,101085.34
2023-05-02T07:20:01.371Z,101062.78
2023-05-02T07:22:36.968Z,101081.88
2023-05-02T07:25:10.526Z,101108.69
2023-05-02T07:27:43.682Z,101124.25
2023-05-02T07:30:13.915Z,101098.38
2023-05-02T07:32:44.144Z,101095.91
2023-05-02T07:35:14.326Z,101114.91
2023-05-02T07:37:53.184Z,101121.81
2023-05-02T07:40:23.433Z,101109.69
2023-05-02T07:42:53.676Z,101129.81
2023-05-02T07:45:26.270Z,101118.69
2023-05-02T07:47:56.430Z,101135.97
2023-05-02T07:53:13.044Z,101136.97
2023-05-02T07:55:43.246Z,101141.28
2023-05-02T07:58:13.670Z,101149.16
2023-05-02T08:00:43.900Z,101132.81
2023-05-02T08:03:14.216Z,101150.16
2023-05-02T08:05:45.012Z,101146.69
2023-05-02T08:08:15.403Z,101151.91
2023-05-02T08:10:53.054Z,101153.63
2023-05-02T08:13:23.189Z,101148.53
2023-05-02T08:15:58.311Z,101135.50
2023-05-02T08:18:45.270Z,101137.28
2023-05-02T08:21:15.511Z,101134.72
2023-05-02T08:23:47.350Z,101152.06
2023-05-02T08:26:19.272Z,101139.91
2023-05-02T08:28:49.668Z,101139.06
2023-05-02T08:31:19.984Z,101164.16
2023-05-02T08:33:50.716Z,101176.28
2023-05-02T08:36:20.897Z,101145.88
2023-05-02T08:38:51.172Z,101167.50
2023-05-02T08:41:24.648Z,101143.19
2023-05-02T08:43:56.706Z,101155.22
2023-05-02T08:46:31.239Z,101168.13
2023-05-02T08:51:51.728Z,101142.84
2023-05-02T08:54:25.899Z,101148.75
2023-05-02T08:56:57.055Z,101177.28
2023-05-02T08:59:27.141Z,101167.72
2023-05-02T09:02:10.599Z,101174.63
2023-05-02T09:04:43.214Z,101185.81
2023-05-02T09:07:13.407Z,101185.59
2023-05-02T09:09:43.602Z,101185.41
2023-05-02T09:12:14.550Z,101194.81
2023-05-02T09:14:45.340Z,101170.44
2023-05-02T09:17:15.580Z,101151.97
2023-05-02T09:19:45.931Z,101174.28
2023-05-02T09:22:23.602Z,101174.34
2023-05-02T09:24:57.849Z,101188.25
2023-05-02T09:27:28.328Z,101196.97
2023-05-02T09:33:49.529Z,101204.81
2023-05-02T09:36:20.833Z,101207.94
2023-05-02T09:39:11.245Z,101203.00
2023-05-02T09:41:54.314Z,101213.94
2023-05-02T09:44:56.398Z,101217.94
2023-05-02T09:47:29.627Z,101222.63
2023-05-02T09:49:59.783Z,101211.97
2023-05-02T09:52:30.740Z,101217.63
2023-05-02T09:55:01.297Z,101197.41
2023-05-02T09:57:41.883Z,101204.13
2023-05-02T10:00:15.096Z,101235.81
2023-05-02T10:03:11.122Z,101236.09
2023-05-02T10:05:42.547Z,101234.03
2023-05-02T10:08:13.675Z,101236.13
2023-05-02T10:10:47.689Z,101217.31
2023-05-02T10:13:21.553Z,101226.97
2023-05-02T10:15:58.808Z,101218.78
2023-05-02T10:18:58.680Z,101238.00
2023-05-02T10:21:29.481Z,101215.78
2023-05-02T10:24:02.343Z,101230.31
2023-05-02T10:26:34.935Z,101235.94
2023-05-02T10:29:05.510Z,101235.53
2023-05-02T10:31:37.888Z,101242.53
2023-05-02T10:34:10.896Z,101240.09
2023-05-02T10:36:41.227Z,101238.13
2023-05-02T10:39:11.407Z,101239.66
2023-05-02T10:41:43.199Z,101240.59
2023-05-02T10:44:13.468Z,101237.78
2023-05-02T10:46:43.759Z,101233.13
2023-05-02T10:49:14.263Z,101229.84
2023-05-02T10:51:44.499Z,101244.69
2023-05-02T10:54:17.785Z,101235.78
2023-05-02T10:57:06.430Z,101234.03
2023-05-02T10:59:40.430Z,101215.03
2023-05-02T11:02:31.199Z,101233.66
2023-05-02T11:05:07.944Z,101220.34
2023-05-02T11:07:38.412Z,101256.44
2023-05-02T11:10:25.055Z,101266.78
2023-05-02T11:12:57.600Z,101253.19
2023-05-02T11:15:32.899Z,101263.22
2023-05-02T11:18:13.284Z,101282.03
2023-05-02T11:20:45.679Z,101276.69
2023-05-02T11:23:15.886Z,101303.88
2023-05-02T11:26:01.399Z,101306.59
2023-05-02T11:28:34.722Z,101320.50
2023-05-02T11:31:28.263Z,101321.31
2023-05-02T11:34:03.460Z,101332.72
2023-05-02T11:36:35.544Z,101347.69
2023-05-02T11:39:19.569Z,101358.38
2023-05-02T11:41:51.356Z,101335.38
2023-05-02T11:44:22.013Z,101358.28
2023-05-02T11:46:53.268Z,101364.63
2023-05-02T11:49:23.569Z,101347.38
2023-05-02T11:51:53.803Z,101365.59
2023-05-02T11:54:24.069Z,101377.09
2023-05-02T11:56:54.190Z,101371.19
2023-05-02T11:59:24.301Z,101378.41
2023-05-02T12:01:55.981Z,101376.06
2023-05-02T12:04:26.732Z,101377.94
2023-05-02T12:06:58.110Z,101375.53
2023-05-02T12:09:28.370Z,101397.47
2023-05-02T12:11:58.648Z,101399.34
2023-05-02T12:14:30.830Z,101391.00
2023-05-02T12:17:01.296Z,101422.38
2023-05-02T12:19:31.516Z,101427.81
2023-05-02T12:22:02.005Z,101437.63
2023-05-02T12:24:33.530Z,101448.38
2023-05-02T12:27:17.152Z,101478.50
2023-05-02T12:29:49.280Z,101475.56
2023-05-02T12:32:33.761Z,101490.84
2023-05-02T12:35:04.448Z,101490.63
2023-05-02T12:37:38.225Z,101489.31
2023-05-02T12:40:17.146Z,101504.47
2023-05-02T12:43:04.151Z,101503.81
2023-05-02T12:45:34.981Z,101513.63
2023-05-02T12:48:22.709Z,101502.59
2023-05-02T12:50:54.997Z,101518.50
2023-05-02T12:53:46.070Z,101527.59
2023-05-02T12:56:17.197Z,101525.19
2023-05-02T12:58:48.842Z,101516.69
2023-05-02T13:01:19.170Z,101530.69
2023-05-02T13:03:51.380Z,101547.28
2023-05-02T13:06:21.692Z,101557.75
2023-05-02T13:08:51.858Z,101551.56
2023-05-02T13:11:22.514Z,101566.28
2023-05-02T13:13:53.789Z,101568.72
2023-05-02T13:16:24.020Z,101584.28
2023-05-02T13:18:54.327Z,101591.19
2023-05-02T13:21:24.500Z,101585.06
2023-05-02T13:23:55.568Z,101592.94
2023-05-02T13:26:25.761Z,101562.56
2023-05-02T13:28:56.408Z,101571.22
2023-05-02T13:31:26.994Z,101611.03
2023-05-02T13:33:57.290Z,101601.50
2023-05-02T13:36:27.589Z,101615.59
2023-05-02T13:38:57.957Z,101618.34
2023-05-02T13:41:28.161Z,101603.72
2023-05-02T13:43:58.557Z,101628.19
2023-05-02T13:46:28.827Z,101625.75
2023-05-02T13:48:58.924Z,101631.09
2023-05-02T13:51:31.519Z,101628.50
2023-05-02T13:54:01.962Z,101639.00
2023-05-02T13:56:32.303Z,101634.78
2023-05-02T13:59:02.485Z,101633.97
2023-05-02T14:01:32.842Z,101652.38
2023-05-02T14:04:08.960Z,101638.53
2023-05-02T14:06:39.517Z,101662.09
2023-05-02T14:09:10.116Z,101643.00
2023-05-02T14:11:40.294Z,101644.81
2023-05-02T14:14:12.698Z,101656.13
2023-05-02T14:16:42.929Z,101664.00
2023-05-02T14:19:13.113Z,101675.28
2023-05-02T14:21:43.213Z,101677.06
2023-05-02T14:24:15.241Z,101678.84
2023-05-02T14:26:45.364Z,101686.69
2023-05-02T14:29:15.537Z,101680.56
2023-05-02T14:31:46.244Z,101692.72
2023-05-02T14:34:16.484Z,101706.69
2023-05-02T14:36:46.595Z,101699.78
2023-05-02T14:39:17.033Z,101695.41
2023-05-02T14:41:47.630Z,101716.34
2023-05-02T14:44:18.543Z,101704.13
2023-05-02T14:46:48.801Z,101712.03
2023-05-02T14:49:19.001Z,101699.81
2023-05-02T14:51:49.161Z,101734.69
2023-05-02T14:54:20.513Z,101748.66
2023-05-02T14:56:52.923Z,101724.31
2023-05-02T14:59:23.629Z,101739.97
2023-05-02T15:01:53.776Z,101766.16
2023-05-02T15:04:27.428Z,101748.75
2023-05-02T15:06:58.455Z,101757.47
2023-05-02T15:09:29.435Z,101740.94
2023-05-02T15:11:59.601Z,101754.84
2023-05-02T15:14:30.230Z,101761.72
2023-05-02T15:17:00.494Z,101743.38
2023-05-02T15:19:31.045Z,101726.41
2023-05-02T15:22:02.024Z,101738.75
2023-05-02T15:24:32.201Z,101761.72
2023-05-02T15:27:03.789Z,101767.78
2023-05-02T15:29:33.943Z,101771.56
2023-05-02T15:32:04.183Z,101761.91
2023-05-02T15:34:34.432Z,101779.72
2023-05-02T15:37:04.657Z,101778.34
2023-05-02T15:39:34.939Z,101769.97
2023-05-02T15:42:05.909Z,101764.00
2023-05-02T15:44:39.362Z,101788.50
2023-05-02T15:47:09.611Z,101781.81
2023-05-02T15:49:40.245Z,101772.47
2023-05-02T15:52:10.469Z,101786.59
2023-05-02T15:54:40.596Z,101768.47
2023-05-02T15:57:12.842Z,101779.97
2023-05-02T15:59:43.104Z,101782.69
2023-05-02T16:02:13.402Z,101796.72
2023-05-02T16:04:43.683Z,101797.69
2023-05-02T16:07:13.873Z,101788.19
2023-05-02T16:09:44.109Z,101796.94
2023-05-02T16:12:14.843Z,101801.34
2023-05-02T16:14:45.129Z,101799.72
2023-05-02T16:17:15.253Z,101817.16
2023-05-02T16:19:45.504Z,101804.22
2023-05-02T16:22:15.622Z,101819.94
2023-05-02T16:24:46.079Z,101803.44
2023-05-02T16:27:16.640Z,101834.88
2023-05-02T16:29:46.848Z,101827.91
2023-05-02T16:32:18.619Z,101799.19
2023-05-02T16:34:48.788Z,101825.38
2023-05-02T16:37:18.974Z,101838.50
2023-05-02T16:39:49.121Z,101830.66
2023-05-02T16:42:19.270Z,101838.53
2023-05-02T16:44:49.509Z,101839.41
2023-05-02T16:47:19.686Z,101846.38
2023-05-02T16:50:00.699Z,101812.44
2023-05-02T16:52:31.770Z,101817.66
2023-05-02T16:55:01.881Z,101838.56
2023-05-02T16:57:35.460Z,101849.91
2023-05-02T17:00:08.438Z,101857.75
2023-05-02T17:02:38.736Z,101860.38
2023-05-02T17:05:10.833Z,101862.13
2023-05-02T17:07:40.966Z,101864.72
2023-05-02T17:10:11.853Z,101864.72
2023-05-02T17:12:42.188Z,101848.16
2023-05-02T17:15:14.261Z,101862.09
2023-05-02T17:17:44.467Z,101871.69
2023-05-02T17:20:14.859Z,101867.28
2023-05-02T17:22:45.070Z,101852.44
2023-05-02T17:25:15.332Z,101863.75
2023-05-02T17:27:45.627Z,101875.97
2023-05-02T17:30:15.790Z,101864.56
2023-05-02T17:32:45.957Z,101876.75
2023-05-02T17:35:17.464Z,101873.25
2023-05-02T17:37:47.702Z,101871.50
2023-05-02T17:40:18.140Z,101869.66
2023-05-02T17:42:49.161Z,101884.47
2023-05-02T17:45:19.404Z,101891.41
2023-05-02T17:47:49.599Z,101883.50
2023-05-02T17:50:19.816Z,101901.78
2023-05-02T17:52:50.971Z,101887.81
2023-05-02T17:55:21.344Z,101884.25
2023-05-02T17:57:51.654Z,101901.75
2023-05-02T18:00:22.012Z,101905.16
2023-05-02T18:02:52.310Z,101898.09
2023-05-02T18:05:23.344Z,101885.78
2023-05-02T18:07:53.862Z,101907.59
2023-05-02T18:10:24.028Z,101917.13
2023-05-02T18:12:54.207Z,101925.81
2023-05-02T18:15:24.425Z,101924.88
2023-05-02T18:17:56.837Z,101928.28
2023-05-02T18:20:27.764Z,101932.53
2023-05-02T18:22:59.284Z,101935.97
2023-05-02T18:25:29.549Z,101943.75
2023-05-02T18:27:59.611Z,101918.34
2023-05-02T18:30:30.001Z,101944.47
2023-05-02T18:33:00.220Z,101950.50
2023-05-02T18:35:30.567Z,101935.59
2023-05-02T18:38:00.757Z,101943.41
2023-05-02T18:40:31.499Z,101942.44
2023-05-02T18:43:01.653Z,101951.97
2023-05-02T18:45:32.959Z,101953.66
2023-05-02T18:48:03.613Z,101945.69
2023-05-02T18:50:33.873Z,101960.47
2023-05-02T18:53:04.416Z,101961.31
2023-05-02T18:55:34.610Z,101971.75
2023-05-02T18:58:04.976Z,101959.47
2023-05-02T19:00:37.078Z,101976.06
2023-05-02T19:03:07.786Z,101955.91
2023-05-02T19:05:40.852Z,101978.56
2023-05-02T19:08:13.903Z,101983.78
2023-05-02T19:10:44.137Z,101980.25
2023-05-02T19:13:17.791Z,101967.03
2023-05-02T19:15:48.083Z,101968.72
2023-05-02T19:18:18.264Z,101983.47
2023-05-02T19:20:48.834Z,101974.69
2023-05-02T19:23:22.200Z,101977.16
2023-05-02T19:25:52.727Z,101977.09
2023-05-02T19:28:23.337Z,102000.63
2023-05-02T19:30:54.897Z,101996.25
2023-05-02T19:33:25.025Z,101983.09
2023-05-02T19:35:58.702Z,101975.16
2023-05-02T19:38:29.082Z,101974.16
2023-05-02T19:40:59.503Z,101999.47
2023-05-02T19:43:30.041Z,101980.09
2023-05-02T19:46:00.461Z,102000.16
2023-05-02T19:48:30.816Z,101984.25
2023-05-02T19:51:05.040Z,102008.00
2023-05-02T19:53:37.343Z,102012.25
2023-05-02T19:56:07.668Z,102020.13
2023-05-02T19:58:37.971Z,101978.94
2023-05-02T20:01:08.260Z,102008.53
2023-05-02T20:03:38.672Z,102002.41
2023-05-02T20:06:09.064Z,102020.75
2023-05-02T20:08:39.330Z,102032.09
2023-05-02T20:11:09.544Z,102006.69
2023-05-02T20:13:39.924Z,102031.09
2023-05-02T20:16:10.725Z,102033.63
2023-05-02T20:18:40.990Z,101996.81
2023-05-02T20:21:11.276Z,102013.53
2023-05-02T20:23:43.702Z,102010.84
2023-05-02T20:26:15.958Z,101999.44
2023-05-02T20:28:46.063Z,102000.28
2023-05-02T20:31:16.241Z,102027.34
2023-05-02T20:33:46.451Z,102002.69
2023-05-02T20:36:18.285Z,102019.41
2023-05-02T20:38:48.594Z,102043.91
2023-05-02T20:41:18.934Z,102038.66
2023-05-02T20:43:50.471Z,102042.13
2023-05-02T20:46:21.472Z,102018.53
2023-05-02T20:48:52.482Z,102024.50
2023-05-02T20:51:22.958Z,102040.25
2023-05-02T20:53:53.133Z,102035.66
2023-05-02T20:56:23.417Z,102044.38
2023-05-02T20:58:53.543Z,102056.53
2023-05-02T21:01:23.801Z,102039.84
2023-05-02T21:03:54.104Z,102048.38
2023-05-02T21:06:24.318Z,102059.69
2023-05-02T21:08:56.764Z,102054.28
2023-05-02T21:11:26.990Z,102038.41
2023-05-02T21:13:57.140Z,102067.25
2023-05-02T21:16:27.345Z,102070.78
2023-05-02T21:18:57.689Z,102082.91
2023-05-02T21:21:27.851Z,102074.19
2023-05-02T21:23:58.897Z,102061.03
2023-05-02T21:26:29.204Z,102067.06
2023-05-02T21:28:59.556Z,102043.31
2023-05-02T21:31:29.795Z,102072.09
2023-05-02T21:34:00.867Z,102091.28
2023-05-02T21:36:31.564Z,102090.38
2023-05-02T21:39:01.956Z,102094.53
2023-05-02T21:41:32.174Z,102081.34
2023-05-02T21:44:02.430Z,102080.50
2023-05-02T21:46:33.297Z,102091.72
2023-05-02T21:49:04.212Z,102077.72
2023-05-02T21:51:34.646Z,102083.72
2023-05-02T21:54:04.865Z,102084.47
2023-05-02T21:56:35.118Z,102108.91
2023-05-02T21:59:05.304Z,102108.84
2023-05-02T22:01:35.452Z,102103.47
2023-05-02T22:04:05.921Z,102105.13
2023-05-02T22:06:36.203Z,102099.72
2023-05-02T22:09:08.449Z,102100.56
2023-05-02T22:11:38.651Z,102096.97
2023-05-02T22:14:08.977Z,102103.03
2023-05-02T22:16:40.181Z,102099.44
2023-05-02T22:19:14.870Z,102113.38
2023-05-02T22:21:44.967Z,102110.72
2023-05-02T22:24:15.342Z,102119.44
2023-05-02T22:26:45.922Z,102116.69
2023-05-02T22:29:16.142Z,102125.38
2023-05-02T22:31:47.361Z,102116.44
2023-05-02T22:34:17.910Z,102121.63
2023-05-02T22:36:48.068Z,102125.03
2023-05-02T22:39:18.322Z,102123.31
2023-05-02T22:41:48.554Z,102128.41
2023-05-02T22:44:18.864Z,102129.25
2023-05-02T22:46:49.301Z,102134.28
2023-05-02T22:49:19.947Z,102129.09
2023-05-02T22:51:50.451Z,102118.47
2023-05-02T22:54:21.522Z,102115.66
2023-05-02T22:56:53.654Z,102129.72
2023-05-02T22:59:23.893Z,102115.56
2023-05-02T23:01:54.103Z,102135.59
2023-05-02T23:04:24.297Z,102136.44
2023-05-02T23:06:54.599Z,102135.53
2023-05-02T23:09:24.751Z,102134.56
2023-05-02T23:11:54.901Z,102140.53
2023-05-02T23:14:25.118Z,102120.41
2023-05-02T23:16:55.281Z,102134.25
2023-05-02T23:19:26.112Z,102146.41
2023-05-02T23:21:57.517Z,102117.28
2023-05-02T23:24:28.380Z,102138.31
2023-05-02T23:26:58.726Z,102126.97
2023-05-02T23:29:28.865Z,102111.78
2023-05-02T23:31:59.206Z,102149.38
2023-05-02T23:34:31.269Z,102133.59
2023-05-02T23:37:01.539Z,102137.84
2023-05-02T23:39:32.101Z,102128.03
2023-05-02T23:42:03.919Z,102145.50
2023-05-02T23:44:34.089Z,102142.81
2023-05-02T23:47:04.310Z,102151.50
2023-05-02T23:49:34.563Z,102142.81
2023-05-02T23:52:06.103Z,102160.13
2023-05-02T23:54:36.195Z,102143.56
2023-05-02T23:57:06.600Z,102138.13
2023-05-02T23:59:36.705Z,102153.75
